Mutum, Brazil
Current Conditions -  °F | °C
As of 3:00 PM on Thursday 18 Dec 2014 (Local Time) from SBSV Reporting Station
Broken Clouds Broken Clouds  
Wind Chill: 25°   Ceiling: 1700
Heat Index: 26°   Visibility: 5mi
Dew Point: 22°   Wind: 8mph
Humidity: 83%   Direction: 60°ENE
Pressure: 29.85"   Gusts: NA
Location:  12.88°S, 39.13°W
Report Text: SBSV 181800Z 06007KT 8000 SCT010 BKN017 FEW020TCU BKN070 25/22 Q1011
Loading
Personal Weather Stations






























Interactive Weather Map New forecast layout! Learn more

10-Day Weather Forecast

Advertisements
Track Severe Weather on mobile